Time;durP1;ratioP1;P1;durP2;ratioP2;P2;SDS_P1;SDS_P2;PMS_P1;PMS_P2;Temp;Humidity;BMP_temperature;BMP_pressure;BME280_temperature;BME280_humidity;BME280_pressure;Samples;Min_cycle;Max_cycle;Signal;HPM_P1;HPM_P2
2023/12/31 00:02:03;;;;;;;7.10;6.50;;;7.60;1.00;;;;;;5033013;28;20540;-81
2023/12/31 00:04:31;;;;;;;6.17;5.70;;;7.70;1.00;;;;;;5035732;28;20570;-81
2023/12/31 00:07:01;;;;;;;7.00;5.50;;;7.70;1.00;;;;;;5034373;28;21295;-81
2023/12/31 00:09:29;;;;;;;5.90;5.50;;;7.60;1.00;;;;;;5034833;28;20476;-79
2023/12/31 00:11:57;;;;;;;6.60;6.10;;;7.60;1.00;;;;;;5033945;28;21019;-80
2023/12/31 00:14:26;;;;;;;5.20;4.90;;;7.50;1.00;;;;;;5037266;28;20554;-79
2023/12/31 00:16:54;;;;;;;6.50;5.90;;;7.50;1.00;;;;;;5035358;28;20459;-81
2023/12/31 00:19:22;;;;;;;6.83;6.20;;;7.50;1.00;;;;;;5035934;28;20583;-80
2023/12/31 00:21:51;;;;;;;6.10;5.60;;;7.40;1.00;;;;;;5037405;28;20459;-80
2023/12/31 00:24:20;;;;;;;5.83;5.30;;;7.50;1.00;;;;;;5019624;28;20507;-80
2023/12/31 00:26:49;;;;;;;9.77;8.87;;;7.60;1.00;;;;;;5035549;28;20456;-80
2023/12/31 00:29:17;;;;;;;8.33;6.87;;;7.60;1.00;;;;;;5036849;28;20522;-81
2023/12/31 00:31:45;;;;;;;7.50;6.90;;;7.60;1.00;;;;;;5033710;28;21387;-81
2023/12/31 00:34:13;;;;;;;6.43;5.03;;;7.60;1.00;;;;;;5034840;28;20455;-80
2023/12/31 00:36:42;;;;;;;6.77;5.90;;;7.50;1.00;;;;;;5033963;28;20549;-80
2023/12/31 00:39:10;;;;;;;5.13;4.83;;;7.50;1.00;;;;;;5036717;28;20525;-81
2023/12/31 00:41:40;;;;;;;7.00;5.60;;;7.40;1.00;;;;;;5038663;28;20953;-80
2023/12/31 00:44:08;;;;;;;7.10;4.93;;;7.40;1.00;;;;;;5035343;28;20682;-81
2023/12/31 00:46:36;;;;;;;6.53;6.03;;;7.40;1.00;;;;;;5036499;28;20578;-80
2023/12/31 00:49:04;;;;;;;6.47;5.97;;;7.30;1.00;;;;;;5036378;28;20512;-79
2023/12/31 00:51:33;;;;;;;6.37;5.97;;;7.30;1.00;;;;;;5035168;28;20627;-80
2023/12/31 00:54:01;;;;;;;6.40;6.00;;;7.30;1.00;;;;;;5035151;28;20477;-80
2023/12/31 00:56:29;;;;;;;5.10;4.80;;;7.30;1.00;;;;;;5032314;28;20579;-80
2023/12/31 00:58:59;;;;;;;5.60;5.20;;;7.20;1.00;;;;;;5037003;28;20885;-81
2023/12/31 01:01:27;;;;;;;5.70;5.30;;;7.10;1.00;;;;;;5037203;28;20452;-80
2023/12/31 01:03:55;;;;;;;7.80;5.63;;;7.10;1.00;;;;;;5035501;28;20590;-79
2023/12/31 01:06:24;;;;;;;5.30;5.00;;;7.10;1.00;;;;;;5038101;28;20448;-78
2023/12/31 01:08:54;;;;;;;5.80;5.30;;;7.10;1.00;;;;;;5033448;28;20475;-81
2023/12/31 01:11:22;;;;;;;5.07;4.63;;;7.20;1.00;;;;;;5045093;28;21183;-79
2023/12/31 01:13:51;;;;;;;4.80;4.40;;;7.10;1.00;;;;;;5033456;28;20492;-79
2023/12/31 01:16:21;;;;;;;5.10;4.60;;;7.20;1.00;;;;;;5034803;28;20449;-79
2023/12/31 01:18:50;;;;;;;5.17;4.77;;;7.10;1.00;;;;;;5032535;28;20465;-80
2023/12/31 01:21:18;;;;;;;4.83;4.50;;;7.20;1.00;;;;;;5032157;28;20460;-81
2023/12/31 01:23:46;;;;;;;4.77;4.40;;;7.20;1.00;;;;;;5036601;28;20884;-80
2023/12/31 01:26:15;;;;;;;5.70;5.30;;;7.10;1.00;;;;;;5035776;28;21005;-80
2023/12/31 01:28:43;;;;;;;5.00;4.70;;;7.20;1.00;;;;;;5033677;28;20483;-79
2023/12/31 01:31:18;;;;;;;4.97;4.57;;;7.10;1.00;;;;;;5032245;28;21269;-79
2023/12/31 01:33:48;;;;;;;4.87;4.47;;;7.00;1.00;;;;;;5028951;28;20471;-79
2023/12/31 01:36:18;;;;;;;5.10;4.70;;;7.00;1.00;;;;;;5032250;28;21258;-79
2023/12/31 01:38:46;;;;;;;5.57;5.17;;;7.00;1.00;;;;;;5031643;28;20484;-79
2023/12/31 01:41:14;;;;;;;4.87;4.50;;;6.90;1.00;;;;;;5033758;28;20540;-79
2023/12/31 01:43:42;;;;;;;4.60;4.30;;;6.90;1.00;;;;;;5033349;28;20982;-80
2023/12/31 01:46:11;;;;;;;5.00;4.60;;;6.90;1.00;;;;;;5036262;28;21330;-80
2023/12/31 01:48:41;;;;;;;5.37;4.50;;;7.00;1.00;;;;;;5031828;28;20500;-80
2023/12/31 01:51:10;;;;;;;4.43;4.13;;;7.00;1.00;;;;;;5033811;28;20461;-79
2023/12/31 01:53:39;;;;;;;5.53;5.17;;;7.20;21.90;;;;;;5048385;28;20456;-80
2023/12/31 01:56:07;;;;;;;4.10;3.90;;;7.20;45.00;;;;;;5036137;28;20453;-81
2023/12/31 01:58:35;;;;;;;4.60;4.30;;;7.30;1.00;;;;;;5033513;28;21076;-79
2023/12/31 02:01:05;;;;;;;6.20;4.47;;;7.30;10.00;;;;;;5034357;28;20455;-80
2023/12/31 02:03:35;;;;;;;4.27;4.07;;;7.30;18.80;;;;;;5029058;28;20535;-79
2023/12/31 02:06:03;;;;;;;4.70;4.30;;;7.30;1.00;;;;;;5034566;28;21111;-80
2023/12/31 02:08:33;;;;;;;5.87;5.30;;;7.40;1.00;;;;;;5033927;28;20476;-79
2023/12/31 02:11:02;;;;;;;5.53;5.00;;;7.50;1.00;;;;;;5034224;28;20448;-80
2023/12/31 02:13:30;;;;;;;4.37;4.07;;;7.50;1.00;;;;;;5031396;28;20483;-80
2023/12/31 02:15:58;;;;;;;4.70;4.40;;;7.50;1.00;;;;;;5033290;28;20514;-81
2023/12/31 02:18:26;;;;;;;4.60;4.40;;;7.60;1.00;;;;;;5033007;28;20487;-80
2023/12/31 02:20:55;;;;;;;4.60;4.30;;;7.60;1.00;;;;;;5045975;28;20457;-81
2023/12/31 02:23:24;;;;;;;4.53;4.13;;;7.50;1.00;;;;;;5036200;28;20472;-80
2023/12/31 02:26:07;;;;;;;4.40;4.20;;;7.50;1.00;;;;;;5038073;28;20475;-81
2023/12/31 02:28:35;;;;;;;5.43;4.90;;;7.40;1.00;;;;;;5035932;28;20566;-80
2023/12/31 02:31:05;;;;;;;5.20;4.80;;;7.40;1.00;;;;;;5031929;28;20460;-79
2023/12/31 02:33:34;;;;;;;4.73;4.43;;;7.40;1.00;;;;;;5035186;28;20499;-80
2023/12/31 02:36:03;;;;;;;4.93;4.60;;;7.40;1.00;;;;;;5032525;28;20462;-80
2023/12/31 02:38:31;;;;;;;4.80;4.50;;;7.40;1.00;;;;;;5031410;28;20485;-80
2023/12/31 02:41:01;;;;;;;5.20;4.80;;;7.30;1.00;;;;;;5033598;28;20488;-80
2023/12/31 02:43:29;;;;;;;4.80;4.50;;;7.40;1.00;;;;;;5024097;28;20820;-81
2023/12/31 02:45:58;;;;;;;5.00;4.60;;;7.40;1.00;;;;;;5028895;28;20485;-79
2023/12/31 02:48:26;;;;;;;5.13;4.83;;;7.40;1.00;;;;;;5029553;28;20543;-81
2023/12/31 02:50:54;;;;;;;9.33;6.70;;;7.60;1.00;;;;;;5031437;28;20477;-80
2023/12/31 02:53:22;;;;;;;5.20;4.90;;;7.60;1.00;;;;;;5033623;28;20557;-79
2023/12/31 02:55:51;;;;;;;5.50;5.20;;;7.50;1.00;;;;;;5032442;28;20665;-80
2023/12/31 02:58:20;;;;;;;6.53;5.93;;;7.50;1.00;;;;;;5033043;28;20523;-81
2023/12/31 03:00:49;;;;;;;6.33;5.77;;;7.60;1.00;;;;;;5025453;28;21136;-80
2023/12/31 03:03:17;;;;;;;6.27;5.50;;;7.60;1.00;;;;;;5033523;28;20983;-80
2023/12/31 03:05:45;;;;;;;5.90;5.27;;;7.60;1.00;;;;;;5032086;28;20556;-81
2023/12/31 03:08:14;;;;;;;4.93;4.63;;;7.60;1.00;;;;;;5030941;28;20556;-80
2023/12/31 03:10:42;;;;;;;5.20;4.90;;;7.50;1.00;;;;;;5033553;28;20452;-80
2023/12/31 03:13:11;;;;;;;5.57;5.20;;;7.60;1.00;;;;;;5032504;28;20456;-80
2023/12/31 03:15:43;;;;;;;5.60;5.10;;;7.60;1.00;;;;;;5034996;28;20970;-82
2023/12/31 03:18:11;;;;;;;7.90;5.50;;;7.60;1.00;;;;;;5036602;28;20564;-80
2023/12/31 03:20:40;;;;;;;9.50;7.47;;;7.60;1.00;;;;;;5038156;28;20474;-81
2023/12/31 03:23:08;;;;;;;5.57;5.27;;;7.70;1.00;;;;;;5038801;28;20436;-81
2023/12/31 03:25:37;;;;;;;6.10;5.60;;;7.70;1.00;;;;;;5035250;28;20515;-81
2023/12/31 03:28:06;;;;;;;7.37;6.60;;;7.70;1.00;;;;;;5032809;28;20469;-80
2023/12/31 03:30:34;;;;;;;9.83;7.47;;;7.70;1.00;;;;;;5037203;28;21638;-80
2023/12/31 03:33:04;;;;;;;6.97;6.20;;;7.70;1.00;;;;;;5033136;28;20441;-80
2023/12/31 03:35:33;;;;;;;11.33;8.30;;;7.60;1.00;;;;;;5037292;28;20447;-80
2023/12/31 03:38:01;;;;;;;5.57;5.17;;;7.70;1.00;;;;;;5033008;28;20562;-80
2023/12/31 03:40:30;;;;;;;6.70;4.93;;;7.60;1.00;;;;;;5033933;28;21079;-81
2023/12/31 03:42:58;;;;;;;4.63;4.33;;;7.70;1.00;;;;;;5038622;28;20536;-80
2023/12/31 03:45:27;;;;;;;4.37;4.17;;;7.60;1.00;;;;;;5038356;28;20503;-80
2023/12/31 03:47:55;;;;;;;4.90;4.53;;;7.70;1.00;;;;;;5044634;28;20891;-81
2023/12/31 03:50:25;;;;;;;4.97;4.67;;;7.70;1.00;;;;;;5035290;28;20834;-79
2023/12/31 03:52:53;;;;;;;4.70;4.40;;;7.70;1.00;;;;;;5037864;28;20451;-80
2023/12/31 03:55:22;;;;;;;5.13;4.73;;;7.60;1.00;;;;;;5035541;28;21233;-80
2023/12/31 03:57:50;;;;;;;5.30;5.00;;;7.60;1.00;;;;;;5034952;28;21049;-80
2023/12/31 04:00:19;;;;;;;5.07;4.67;;;7.60;1.00;;;;;;5033132;28;20461;-81
2023/12/31 04:02:48;;;;;;;4.97;4.67;;;7.50;1.00;;;;;;5035389;28;20552;-80
2023/12/31 04:05:16;;;;;;;4.50;4.27;;;7.40;1.00;;;;;;5034138;28;20646;-81
2023/12/31 04:07:46;;;;;;;4.40;4.20;;;7.40;1.00;;;;;;5035591;28;20471;-80
2023/12/31 04:10:18;;;;;;;4.50;4.20;;;7.30;1.00;;;;;;5036568;28;20440;-80
2023/12/31 04:12:46;;;;;;;4.37;4.17;;;7.30;1.00;;;;;;5033837;28;20445;-80
2023/12/31 04:15:15;;;;;;;4.03;3.77;;;7.30;1.00;;;;;;5038653;28;20957;-81
2023/12/31 04:17:44;;;;;;;3.60;3.40;;;7.40;1.00;;;;;;5034018;28;20464;-80
2023/12/31 04:20:12;;;;;;;4.20;4.00;;;7.30;1.00;;;;;;5038372;28;20968;-81
2023/12/31 04:22:41;;;;;;;3.63;3.53;;;7.40;1.00;;;;;;5035760;28;20835;-80
2023/12/31 04:25:11;;;;;;;4.03;3.73;;;7.30;1.00;;;;;;5037810;28;20452;-80
2023/12/31 04:27:40;;;;;;;4.20;4.00;;;7.30;1.00;;;;;;5047496;28;20471;-79
2023/12/31 04:30:09;;;;;;;3.70;3.60;;;7.30;1.00;;;;;;5032543;28;20457;-81
2023/12/31 04:32:38;;;;;;;3.73;3.60;;;7.20;1.00;;;;;;5037879;28;20547;-81
2023/12/31 04:35:07;;;;;;;4.07;3.87;;;7.20;1.00;;;;;;5033268;28;20555;-80
2023/12/31 04:37:36;;;;;;;4.90;4.67;;;7.20;1.00;;;;;;5035086;28;20461;-80
2023/12/31 04:40:05;;;;;;;4.30;3.90;;;7.10;1.00;;;;;;5035989;28;20456;-80
2023/12/31 04:42:34;;;;;;;3.47;3.30;;;7.10;1.00;;;;;;5034264;28;20463;-80
2023/12/31 04:45:07;;;;;;;4.30;4.10;;;7.10;1.00;;;;;;5035325;28;20451;-82
2023/12/31 04:47:36;;;;;;;3.80;3.60;;;7.00;1.00;;;;;;5035718;28;20816;-80
2023/12/31 04:50:05;;;;;;;4.03;3.83;;;7.00;1.00;;;;;;5037653;28;20457;-79
2023/12/31 04:52:34;;;;;;;3.57;3.47;;;7.00;1.00;;;;;;5035564;28;20448;-80
2023/12/31 04:55:02;;;;;;;3.60;3.40;;;7.00;1.00;;;;;;5034586;28;20452;-79
2023/12/31 04:57:31;;;;;;;3.30;3.10;;;7.00;1.00;;;;;;5034199;28;20457;-79
2023/12/31 05:00:00;;;;;;;3.63;3.40;;;7.00;1.00;;;;;;5032191;28;20461;-80
2023/12/31 05:02:29;;;;;;;4.63;4.17;;;7.00;1.00;;;;;;5033190;28;20519;-80
2023/12/31 05:04:57;;;;;;;3.57;3.37;;;7.00;1.00;;;;;;5034451;28;20496;-79
2023/12/31 05:07:26;;;;;;;3.57;3.37;;;7.00;1.00;;;;;;5034271;28;20556;-80
2023/12/31 05:09:54;;;;;;;4.00;3.70;;;7.00;1.00;;;;;;5036397;28;21172;-79
2023/12/31 05:12:22;;;;;;;3.30;3.10;;;6.90;1.00;;;;;;5035665;28;20458;-79
2023/12/31 05:14:50;;;;;;;3.60;3.40;;;6.90;1.00;;;;;;5037866;28;20543;-79
2023/12/31 05:17:20;;;;;;;3.50;3.40;;;6.90;1.00;;;;;;5039602;28;20456;-79
2023/12/31 05:19:48;;;;;;;3.50;3.30;;;6.90;1.00;;;;;;5035675;28;20453;-78
2023/12/31 05:22:17;;;;;;;3.40;3.30;;;6.90;1.00;;;;;;5038819;28;20456;-79
2023/12/31 05:24:45;;;;;;;4.00;3.80;;;7.00;1.00;;;;;;5034610;28;20448;-78
2023/12/31 05:27:13;;;;;;;3.43;3.23;;;7.00;1.00;;;;;;5038432;28;20476;-79
2023/12/31 05:29:41;;;;;;;3.50;3.40;;;7.00;1.00;;;;;;5037032;28;20471;-79
2023/12/31 05:32:10;;;;;;;4.00;3.80;;;7.00;1.00;;;;;;5040159;28;20491;-81
2023/12/31 05:34:40;;;;;;;4.30;4.00;;;7.00;1.00;;;;;;5037845;28;20544;-79
2023/12/31 05:37:09;;;;;;;3.67;3.50;;;7.00;1.00;;;;;;5032890;28;20962;-79
2023/12/31 05:39:37;;;;;;;3.50;3.40;;;7.00;1.00;;;;;;5036205;28;21028;-80
2023/12/31 05:42:06;;;;;;;3.90;3.60;;;7.10;1.00;;;;;;5036376;28;21031;-81
2023/12/31 05:44:34;;;;;;;4.20;3.90;;;7.10;1.00;;;;;;5037476;28;21276;-80
2023/12/31 05:47:02;;;;;;;2.90;2.80;;;7.20;1.00;;;;;;5034183;28;20502;-79
2023/12/31 05:49:35;;;;;;;3.63;3.43;;;7.20;1.00;;;;;;5023169;28;20469;-79
2023/12/31 05:52:08;;;;;;;3.23;3.13;;;7.10;1.00;;;;;;5036217;28;20840;-79
2023/12/31 05:54:39;;;;;;;3.50;3.30;;;7.10;1.00;;;;;;5036971;28;20472;-81
2023/12/31 05:57:07;;;;;;;4.00;3.80;;;7.00;1.00;;;;;;5038277;28;20460;-80
2023/12/31 05:59:36;;;;;;;3.90;3.70;;;7.10;1.00;;;;;;5036928;28;20492;-78
2023/12/31 06:02:04;;;;;;;4.10;3.90;;;7.20;1.00;;;;;;5036241;28;20445;-80
2023/12/31 06:04:32;;;;;;;3.90;3.70;;;7.10;1.00;;;;;;5032855;28;20467;-80
2023/12/31 06:07:01;;;;;;;3.33;3.03;;;7.00;1.00;;;;;;5036215;28;20481;-78
2023/12/31 06:09:30;;;;;;;2.97;2.87;;;7.00;1.00;;;;;;5039912;28;20624;-80
2023/12/31 06:11:58;;;;;;;3.43;3.20;;;7.00;1.00;;;;;;5034433;28;20457;-79
2023/12/31 06:14:27;;;;;;;3.53;3.33;;;7.10;1.00;;;;;;5036737;28;20456;-78
2023/12/31 06:16:55;;;;;;;3.40;3.30;;;7.20;1.00;;;;;;5036518;28;20542;-79
2023/12/31 06:19:22;;;;;;;3.13;3.00;;;7.10;1.00;;;;;;5036664;28;20480;-80
2023/12/31 06:21:50;;;;;;;3.10;2.80;;;7.10;1.00;;;;;;5035770;28;20534;-79
2023/12/31 06:24:19;;;;;;;3.77;3.57;;;7.20;1.00;;;;;;5036724;28;20757;-79
2023/12/31 06:26:48;;;;;;;3.40;3.20;;;7.10;1.00;;;;;;5035897;28;20490;-80
2023/12/31 06:29:16;;;;;;;3.53;3.33;;;7.00;1.00;;;;;;5037111;28;20479;-81
2023/12/31 06:31:45;;;;;;;2.93;2.83;;;7.00;1.00;;;;;;5036332;28;20471;-79
2023/12/31 06:34:13;;;;;;;3.40;3.20;;;7.10;1.00;;;;;;5037853;28;20504;-80
2023/12/31 06:36:41;;;;;;;3.70;3.27;;;7.10;1.00;;;;;;5035622;28;20555;-79
2023/12/31 06:39:10;;;;;;;3.10;3.00;;;7.10;1.00;;;;;;5036808;28;20550;-79
2023/12/31 06:41:38;;;;;;;3.20;3.10;;;7.20;1.00;;;;;;5035197;28;20453;-80
2023/12/31 06:44:08;;;;;;;3.70;3.50;;;7.30;1.00;;;;;;5038228;28;20493;-79
2023/12/31 06:46:36;;;;;;;3.57;3.37;;;7.20;1.00;;;;;;5040791;28;20459;-80
2023/12/31 06:49:05;;;;;;;3.20;3.00;;;7.20;1.00;;;;;;5036147;28;20512;-78
2023/12/31 06:51:33;;;;;;;3.57;3.30;;;7.20;1.00;;;;;;5035851;28;20515;-80
2023/12/31 06:54:01;;;;;;;3.70;3.50;;;7.20;1.00;;;;;;5030751;28;21109;-81
2023/12/31 06:56:30;;;;;;;3.50;3.30;;;7.30;1.00;;;;;;5036960;28;20455;-79
2023/12/31 06:58:58;;;;;;;4.93;4.43;;;7.30;1.00;;;;;;5033763;28;20833;-79
2023/12/31 07:01:28;;;;;;;3.83;3.53;;;7.40;1.00;;;;;;5034054;28;20463;-79
2023/12/31 07:03:56;;;;;;;3.27;3.10;;;7.40;1.00;;;;;;5038194;28;20494;-79
2023/12/31 07:06:25;;;;;;;3.70;3.50;;;7.50;99.90;;;;;;5039994;28;21257;-78
2023/12/31 07:08:54;;;;;;;3.47;3.27;;;7.60;99.90;;;;;;5033873;28;20468;-79
2023/12/31 07:11:22;;;;;;;3.70;3.43;;;7.60;99.90;;;;;;5035424;28;20455;-80
2023/12/31 07:13:50;;;;;;;3.73;3.57;;;7.60;99.90;;;;;;5037227;28;20522;-79
2023/12/31 07:16:19;;;;;;;3.17;3.07;;;7.60;99.90;;;;;;5035035;28;20832;-80
2023/12/31 07:18:48;;;;;;;3.93;3.73;;;7.70;99.90;;;;;;5035414;28;20464;-80
2023/12/31 07:21:22;;;;;;;4.70;4.40;;;7.70;99.90;;;;;;5036078;28;20457;-77
2023/12/31 07:23:51;;;;;;;3.97;3.77;;;7.70;99.90;;;;;;5035112;28;20505;-79
2023/12/31 07:26:26;;;;;;;3.50;3.30;;;7.70;99.90;;;;;;5034753;28;21006;-81
2023/12/31 07:28:55;;;;;;;2.60;2.50;;;7.80;99.90;;;;;;5033935;28;20472;-80
2023/12/31 07:31:38;;;;;;;3.60;3.40;;;7.80;99.90;;;;;;5035795;28;20511;-79
2023/12/31 07:34:09;;;;;;;3.20;3.00;;;7.80;99.90;;;;;;5030281;28;21028;-80
2023/12/31 07:36:37;;;;;;;3.40;3.20;;;7.80;99.90;;;;;;5036928;28;20457;-79
2023/12/31 07:39:06;;;;;;;3.60;3.40;;;7.80;99.90;;;;;;5034230;28;21006;-79
2023/12/31 07:41:34;;;;;;;3.10;2.90;;;7.80;99.90;;;;;;5035994;28;21028;-80
2023/12/31 07:44:03;;;;;;;4.00;3.70;;;8.00;99.90;;;;;;5033408;28;20972;-79
2023/12/31 07:46:31;;;;;;;3.40;3.20;;;8.00;99.90;;;;;;5036611;28;20462;-80
2023/12/31 07:49:00;;;;;;;3.50;3.30;;;8.00;99.90;;;;;;5031094;28;20489;-80
2023/12/31 07:51:30;;;;;;;3.40;3.20;;;8.10;99.90;;;;;;5034640;28;20875;-79
2023/12/31 07:53:58;;;;;;;3.33;3.13;;;8.10;99.90;;;;;;5034527;28;20460;-80
2023/12/31 07:56:27;;;;;;;3.00;2.90;;;8.10;99.90;;;;;;5033968;28;20449;-79
2023/12/31 07:58:55;;;;;;;3.20;3.10;;;8.10;99.90;;;;;;5033192;28;20476;-80
2023/12/31 08:01:23;;;;;;;2.90;2.80;;;8.20;99.90;;;;;;5038235;28;20541;-79
2023/12/31 08:03:52;;;;;;;3.10;3.00;;;8.30;99.90;;;;;;5037928;28;20499;-79
2023/12/31 08:06:20;;;;;;;3.83;3.63;;;8.20;99.90;;;;;;5037246;28;20463;-79
2023/12/31 08:08:50;;;;;;;3.67;3.43;;;8.20;99.90;;;;;;5039044;28;20569;-80
2023/12/31 08:11:20;;;;;;;2.73;2.63;;;8.10;99.90;;;;;;5041021;28;20444;-80
2023/12/31 08:13:50;;;;;;;2.43;2.23;;;8.20;99.90;;;;;;5040496;28;20452;-79
2023/12/31 08:16:19;;;;;;;1.90;1.80;;;8.20;99.90;;;;;;5038480;28;20525;-80
2023/12/31 08:18:47;;;;;;;2.10;2.00;;;8.30;99.90;;;;;;5039159;28;20543;-80
2023/12/31 08:21:16;;;;;;;4.03;2.80;;;8.30;99.90;;;;;;5040516;28;20457;-79
2023/12/31 08:23:44;;;;;;;2.50;2.40;;;8.30;99.90;;;;;;5039388;28;20464;-79
2023/12/31 08:26:17;;;;;;;2.50;2.40;;;8.40;99.90;;;;;;5037739;28;20862;-80
2023/12/31 08:28:45;;;;;;;2.33;2.23;;;8.40;99.90;;;;;;5039088;28;20483;-79
2023/12/31 08:31:14;;;;;;;2.30;2.20;;;8.40;99.90;;;;;;5038945;28;20456;-81
2023/12/31 08:33:42;;;;;;;2.30;2.20;;;8.50;99.90;;;;;;5037800;28;20452;-79
2023/12/31 08:36:11;;;;;;;2.30;2.10;;;8.50;99.90;;;;;;5042133;28;20452;-78
2023/12/31 08:38:39;;;;;;;2.53;2.43;;;8.50;99.90;;;;;;5039494;28;20484;-79
2023/12/31 08:41:07;;;;;;;2.60;2.50;;;8.50;99.90;;;;;;5039704;28;20459;-79
2023/12/31 08:43:37;;;;;;;2.70;2.60;;;8.60;99.90;;;;;;5041026;28;20731;-79
2023/12/31 08:46:07;;;;;;;2.77;2.67;;;8.60;99.90;;;;;;5038450;28;20665;-79
2023/12/31 08:48:35;;;;;;;2.40;2.30;;;8.60;99.90;;;;;;5037855;28;20888;-79
2023/12/31 08:51:04;;;;;;;3.00;2.90;;;8.60;99.90;;;;;;5035894;28;20449;-80
2023/12/31 08:53:33;;;;;;;3.03;2.60;;;8.60;99.90;;;;;;5037347;28;20456;-77
2023/12/31 08:56:01;;;;;;;2.33;2.17;;;8.60;99.90;;;;;;5037142;28;20473;-78
2023/12/31 08:58:30;;;;;;;2.30;2.20;;;8.70;99.90;;;;;;5036862;28;20495;-78
2023/12/31 09:01:00;;;;;;;2.17;1.97;;;8.70;99.90;;;;;;5036064;28;20448;-79
2023/12/31 09:03:28;;;;;;;2.40;2.30;;;8.80;99.90;;;;;;5038301;28;20617;-80
2023/12/31 09:05:56;;;;;;;5.27;2.43;;;8.80;99.90;;;;;;5038039;28;20445;-81
2023/12/31 09:08:25;;;;;;;3.13;2.93;;;8.90;99.90;;;;;;5035392;28;20853;-80
2023/12/31 09:10:54;;;;;;;2.07;1.97;;;8.90;99.90;;;;;;5037550;28;20450;-79
2023/12/31 09:13:23;;;;;;;2.50;2.30;;;8.90;99.90;;;;;;5040579;28;21013;-81
2023/12/31 09:15:51;;;;;;;2.60;2.50;;;9.00;99.90;;;;;;5038140;28;20490;-79
2023/12/31 09:18:21;;;;;;;2.50;2.40;;;9.10;99.90;;;;;;5038137;28;20613;-80
2023/12/31 09:20:49;;;;;;;2.10;2.00;;;9.10;99.90;;;;;;5040530;28;20470;-79
2023/12/31 09:23:17;;;;;;;2.30;2.20;;;9.00;99.90;;;;;;5034702;28;20529;-78
2023/12/31 09:25:46;;;;;;;2.10;2.00;;;9.00;99.90;;;;;;5036947;28;20460;-80
2023/12/31 09:28:14;;;;;;;2.20;2.10;;;9.10;99.90;;;;;;5037327;28;20484;-79
2023/12/31 09:30:43;;;;;;;2.30;2.17;;;9.10;99.90;;;;;;5036218;28;20456;-80
2023/12/31 09:33:11;;;;;;;3.73;3.53;;;9.00;99.90;;;;;;5039280;28;20506;-80
2023/12/31 09:35:41;;;;;;;2.50;2.10;;;9.10;99.90;;;;;;5038706;28;20472;-79
2023/12/31 09:38:09;;;;;;;2.40;2.20;;;9.20;99.90;;;;;;5039488;28;20472;-80
2023/12/31 09:40:38;;;;;;;2.57;2.47;;;9.30;99.90;;;;;;5037283;28;21040;-79
2023/12/31 09:43:09;;;;;;;2.30;2.20;;;9.30;99.90;;;;;;5038861;28;20607;-79
2023/12/31 09:45:39;;;;;;;2.10;2.00;;;9.40;99.90;;;;;;5036755;28;20463;-79
2023/12/31 09:48:08;;;;;;;2.43;2.30;;;9.50;99.90;;;;;;5034837;28;20576;-80
2023/12/31 09:50:36;;;;;;;2.67;2.57;;;9.70;99.90;;;;;;5037742;28;20463;-79
2023/12/31 09:53:08;;;;;;;2.60;2.50;;;9.80;99.90;;;;;;5036407;28;20460;-79
2023/12/31 09:55:38;;;;;;;2.50;2.40;;;10.10;99.90;;;;;;5037635;28;21361;-79
2023/12/31 09:58:09;;;;;;;2.50;2.40;;;10.20;99.90;;;;;;5032582;28;20475;-77
2023/12/31 10:00:37;;;;;;;2.73;2.63;;;10.40;99.90;;;;;;5031128;28;20548;-79
2023/12/31 10:03:07;;;;;;;2.90;2.80;;;10.50;99.90;;;;;;5034949;28;20766;-78
2023/12/31 10:05:38;;;;;;;2.90;2.70;;;10.50;99.90;;;;;;5037587;28;20849;-79
2023/12/31 10:08:09;;;;;;;2.90;2.80;;;10.40;99.90;;;;;;5035804;28;21013;-79
2023/12/31 10:10:40;;;;;;;3.37;3.17;;;10.30;99.90;;;;;;5034157;28;20643;-80
2023/12/31 10:13:14;;;;;;;3.30;2.80;;;10.20;99.90;;;;;;5035240;28;20487;-80
2023/12/31 10:15:43;;;;;;;2.77;2.57;;;10.10;99.90;;;;;;5037494;28;21017;-79
2023/12/31 10:18:11;;;;;;;3.10;2.83;;;10.00;99.90;;;;;;5050872;28;20469;-80
2023/12/31 10:20:40;;;;;;;3.17;2.97;;;9.90;99.90;;;;;;5035949;28;20479;-79
2023/12/31 10:23:09;;;;;;;4.27;3.97;;;10.00;99.90;;;;;;5034021;28;20556;-80
2023/12/31 10:25:38;;;;;;;3.07;2.97;;;9.90;99.90;;;;;;5035479;28;20522;-80
2023/12/31 10:28:06;;;;;;;2.97;2.77;;;9.90;99.90;;;;;;5034765;28;20475;-79
2023/12/31 10:30:38;;;;;;;2.40;2.30;;;10.00;99.90;;;;;;5036578;28;20480;-80
2023/12/31 10:33:13;;;;;;;2.67;2.47;;;9.90;99.90;;;;;;5037391;28;20448;-79
2023/12/31 10:35:43;;;;;;;2.10;2.00;;;9.90;99.90;;;;;;5034492;28;20455;-79
2023/12/31 10:38:13;;;;;;;3.10;2.90;;;9.90;99.90;;;;;;5036534;28;20468;-80
2023/12/31 10:40:43;;;;;;;2.93;2.73;;;9.90;99.90;;;;;;5036431;28;20502;-80
2023/12/31 10:43:16;;;;;;;2.63;2.53;;;10.00;99.90;;;;;;5036542;28;20461;-79
2023/12/31 10:45:44;;;;;;;3.27;2.77;;;10.00;99.90;;;;;;5037649;28;20456;-78
2023/12/31 10:48:14;;;;;;;2.33;2.23;;;10.10;99.90;;;;;;5037318;28;20562;-80
2023/12/31 10:50:47;;;;;;;2.40;2.30;;;10.20;99.90;;;;;;5035906;28;20476;-78
2023/12/31 10:53:19;;;;;;;3.00;2.80;;;10.10;99.90;;;;;;5031237;28;20465;-79
2023/12/31 10:55:48;;;;;;;2.60;2.50;;;10.10;99.90;;;;;;5035740;28;21049;-80
2023/12/31 10:58:17;;;;;;;2.67;2.57;;;10.20;99.90;;;;;;5035001;28;20480;-81
2023/12/31 11:00:46;;;;;;;2.43;2.23;;;10.20;99.90;;;;;;5031894;28;20449;-78
2023/12/31 11:03:16;;;;;;;2.63;2.50;;;10.20;99.90;;;;;;5034432;28;20490;-79
2023/12/31 11:05:45;;;;;;;2.30;2.20;;;10.20;99.90;;;;;;5034828;28;20452;-79
2023/12/31 11:08:17;;;;;;;2.90;2.80;;;10.20;99.90;;;;;;5036024;28;20483;-81
2023/12/31 11:10:46;;;;;;;3.10;3.00;;;10.20;99.90;;;;;;5032127;28;20608;-79
2023/12/31 11:13:17;;;;;;;2.60;2.40;;;10.20;99.90;;;;;;5038043;28;21103;-79
2023/12/31 11:15:47;;;;;;;2.47;2.30;;;10.30;99.90;;;;;;5037062;28;20833;-80
2023/12/31 11:18:42;;;;;;;2.40;2.30;;;10.30;99.90;;;;;;5037692;28;20885;-80
2023/12/31 11:21:24;;;;;;;2.30;2.20;;;10.30;99.90;;;;;;5033301;28;20468;-79
2023/12/31 11:24:04;;;;;;;2.77;2.57;;;10.20;99.90;;;;;;5034626;28;20459;-81
2023/12/31 11:26:32;;;;;;;2.40;2.30;;;10.30;99.90;;;;;;5035218;28;20977;-79
2023/12/31 11:29:02;;;;;;;3.13;2.93;;;10.30;99.90;;;;;;5035695;28;21029;-80
2023/12/31 11:31:31;;;;;;;2.70;2.50;;;10.30;99.90;;;;;;5035243;28;20488;-81
2023/12/31 11:34:01;;;;;;;3.00;2.90;;;10.30;99.90;;;;;;5036853;28;20468;-80
2023/12/31 11:36:31;;;;;;;2.77;2.67;;;10.30;99.90;;;;;;5037988;28;20969;-80
2023/12/31 11:39:02;;;;;;;3.30;3.10;;;10.20;99.90;;;;;;5040060;28;20555;-80
2023/12/31 11:41:33;;;;;;;3.07;2.87;;;10.20;99.90;;;;;;5039287;28;21211;-79
2023/12/31 11:44:01;;;;;;;3.03;2.93;;;10.10;99.90;;;;;;5037541;28;20456;-79
2023/12/31 11:46:36;;;;;;;2.53;2.43;;;10.00;99.90;;;;;;5042368;28;20471;-80
2023/12/31 11:49:06;;;;;;;2.60;2.50;;;10.00;99.90;;;;;;5040338;28;20830;-79
2023/12/31 11:51:54;;;;;;;2.60;2.50;;;9.80;99.90;;;;;;5041999;28;20535;-80
2023/12/31 11:54:27;;;;;;;2.50;2.40;;;9.80;1.00;;;;;;5042174;28;20466;-79
2023/12/31 11:56:56;;;;;;;2.97;2.73;;;9.70;1.00;;;;;;5040510;28;20455;-79
2023/12/31 11:59:24;;;;;;;2.40;2.30;;;9.60;1.00;;;;;;5051947;28;20582;-78
2023/12/31 12:01:54;;;;;;;2.80;2.70;;;9.60;1.00;;;;;;5033913;28;20501;-78
2023/12/31 12:04:23;;;;;;;2.50;2.40;;;9.60;12.60;;;;;;5040343;28;20452;-79
2023/12/31 12:06:51;;;;;;;2.80;2.70;;;9.60;54.30;;;;;;5037289;28;21146;-79
2023/12/31 12:09:22;;;;;;;2.93;2.83;;;9.60;99.90;;;;;;5038932;28;20482;-80
2023/12/31 12:11:52;;;;;;;2.90;2.80;;;9.50;99.90;;;;;;5040126;28;20449;-79
2023/12/31 12:14:20;;;;;;;2.83;2.70;;;9.50;99.90;;;;;;5038359;28;20457;-80
2023/12/31 12:16:48;;;;;;;2.80;2.60;;;9.50;99.90;;;;;;5039241;28;20449;-80
2023/12/31 12:19:16;;;;;;;2.33;2.23;;;9.40;99.90;;;;;;5037930;28;20470;-79
2023/12/31 12:21:45;;;;;;;3.03;2.93;;;9.50;99.90;;;;;;5038792;28;20442;-80
2023/12/31 12:24:14;;;;;;;2.70;2.60;;;9.40;99.90;;;;;;5056113;28;20441;-78
2023/12/31 12:26:43;;;;;;;2.80;2.70;;;9.40;99.90;;;;;;5039946;28;20507;-81
2023/12/31 12:29:14;;;;;;;2.67;2.57;;;9.40;99.90;;;;;;5043347;28;20478;-78
2023/12/31 12:31:45;;;;;;;3.00;2.90;;;9.40;99.90;;;;;;5037932;28;20468;-78
2023/12/31 12:34:14;;;;;;;2.73;2.63;;;9.40;99.90;;;;;;5041467;28;20951;-79
2023/12/31 12:36:43;;;;;;;2.90;2.80;;;9.40;99.90;;;;;;5037373;28;20495;-77
2023/12/31 12:39:15;;;;;;;2.73;2.63;;;9.30;99.90;;;;;;5041649;28;20464;-79
2023/12/31 12:41:48;;;;;;;2.90;2.80;;;9.30;99.90;;;;;;5036900;28;20463;-79
2023/12/31 12:44:19;;;;;;;2.93;2.83;;;9.30;99.90;;;;;;5039488;28;20531;-79
2023/12/31 12:46:50;;;;;;;3.00;2.90;;;9.30;99.90;;;;;;5035124;28;20449;-79
2023/12/31 12:49:19;;;;;;;3.47;3.27;;;9.20;99.90;;;;;;5036977;28;20563;-79
2023/12/31 12:51:48;;;;;;;3.43;3.27;;;9.10;1.00;;;;;;5040020;28;20469;-79
2023/12/31 12:54:17;;;;;;;3.13;3.03;;;9.20;1.00;;;;;;5036835;28;20444;-79
2023/12/31 12:56:45;;;;;;;4.50;4.30;;;9.20;99.90;;;;;;5039816;28;21142;-79
2023/12/31 12:59:14;;;;;;;4.03;3.93;;;9.10;1.00;;;;;;5036591;28;21178;-79
2023/12/31 13:01:44;;;;;;;3.20;3.10;;;9.10;1.00;;;;;;5033561;28;20495;-77
2023/12/31 13:04:12;;;;;;;3.30;3.20;;;9.20;1.00;;;;;;5036843;28;20831;-78
2023/12/31 13:06:41;;;;;;;3.00;2.90;;;9.20;1.00;;;;;;5038902;28;20455;-79
2023/12/31 13:09:11;;;;;;;3.30;3.10;;;9.20;1.00;;;;;;5037378;28;20510;-80
2023/12/31 13:11:39;;;;;;;3.20;3.10;;;9.20;1.00;;;;;;5039435;28;20535;-79
2023/12/31 13:14:08;;;;;;;3.13;3.03;;;9.20;1.00;;;;;;5038712;28;20449;-79